الصفحة الرئيسية
METAR-TAF:

METAR-TAF

مطار :

Forrest, أستراليا

دائرة عرض: 30-50-18S, خط طول: 128-06-54E, ارتفاع: 156 متر

مراقبة الطقس الحالي

تاريخ ووقت الإصدار 13 دقيقة قبل الساعة 22:00UTC
ريح 12 عقدة من الغرب/الشمال الغربي
درجة الحرارة 12°درجة مئوية
الرطوبة 82%
ضغط 1014 hPa
الرؤية 10 كم أو أكثر
ملبد بالغيوم على ارتفاع 7100 قدم

METAR: YFRT 252200Z AUTO 29012KT 9999 // OVC071 12/09 Q1014

زمن: 06:13 (22:13 UTC)

توقعات

تاريخ ووقت الإصدار 2ساعات و 51 دقيقة قبل الساعة 19:22UTC
التوقعات صالحة من25 الساعة 20 UTC إلى 26 الساعة 08 UTC
ريح 18 عقدة من الغرب/الشمال الغربي
الرؤية 10 كم أو أكثر
غيوم متفرقة على ارتفاع 3000 قدم
زخات من الأمطار الخفيفة
من 25 الساعة 2300 UTC
ريح 14 عقدة من الغرب
الرؤية: 5000 متر
غيوم متفرقة على ارتفاع 4500 قدم
غيوم متفرقة على ارتفاع 1200 قدم
غيوم مفككة على ارتفاع 2000 قدم
زخات من المطر

TAF: YFRT 251922Z 2520/2608 30018KT 9999 -SHRA SCT030 FM252300 26014KT 9999 NSW SCT045 INTER 2520/2600 5000 SHRA SCT012 BKN020

أرصاد الطقس والتوقعات من أكثر من 4000 مطار (تقارير الطقس للمطار METAR والتنبؤ بالطقس بالمطارTAF).

المحطات المتاحة هي النقط الصفراء والحمراء على الخريطة.

حرك المؤشر فوق النقطة لمعرفة اسم المحطة.

ثم انقر لمعرفة أرصاد وتوقعات الطقس.

لتغيير الخارطة: اضغط على الأزرار الخضراء مع رمز الصليب الأسود للتكبير. على الزر الأخضر مع شرطة للتصغير، أو على الأسهم الخضراء للخرائط المجاورة.


METAR-TAF: